createdAt,value
2023-04-15T01:33:47.731Z,6.18
2023-04-15T01:36:51.453Z,6.11
2023-04-15T01:39:54.956Z,6.20
2023-04-15T01:42:58.564Z,6.31
2023-04-15T01:46:01.707Z,6.20
2023-04-15T01:49:04.696Z,6.27
2023-04-15T01:52:08.124Z,6.16
2023-04-15T01:55:12.732Z,6.21
2023-04-15T01:58:15.774Z,6.31
2023-04-15T02:01:20.194Z,6.37
2023-04-15T02:04:23.734Z,6.40
2023-04-15T02:07:26.664Z,6.42
2023-04-15T02:10:29.888Z,6.26
2023-04-15T02:13:32.785Z,6.45
2023-04-15T02:16:36.184Z,6.41
2023-04-15T02:19:40.500Z,6.55
2023-04-15T02:22:43.927Z,6.46
2023-04-15T02:25:53.754Z,6.38
2023-04-15T02:28:57.347Z,6.39
2023-04-15T02:32:00.340Z,6.40
2023-04-15T02:35:08.896Z,6.43
2023-04-15T02:38:12.333Z,6.37
2023-04-15T02:41:18.819Z,6.45
2023-04-15T02:44:23.509Z,6.43
2023-04-15T02:47:27.018Z,6.36
2023-04-15T02:50:30.066Z,6.37
2023-04-15T02:53:36.262Z,6.36
2023-04-15T02:56:38.892Z,6.40
2023-04-15T02:59:42.102Z,6.41
2023-04-15T03:02:47.109Z,6.32
2023-04-15T03:05:50.625Z,6.46
2023-04-15T03:08:53.875Z,6.34
2023-04-15T03:11:57.077Z,6.38
2023-04-15T03:15:02.146Z,6.27
2023-04-15T03:18:07.339Z,6.33
2023-04-15T03:21:12.665Z,6.34
2023-04-15T03:24:16.146Z,6.40
2023-04-15T03:27:20.165Z,6.37
2023-04-15T03:30:26.554Z,6.46
2023-04-15T03:33:32.792Z,6.37
2023-04-15T03:36:36.402Z,6.42
2023-04-15T03:39:39.396Z,6.38
2023-04-15T03:42:42.481Z,6.32
2023-04-15T03:45:45.356Z,6.38
2023-04-15T03:48:48.860Z,6.37
2023-04-15T03:51:51.747Z,6.33
2023-04-15T03:54:54.633Z,6.40
2023-04-15T03:57:57.272Z,6.41
2023-04-15T04:01:00.402Z,6.31
2023-04-15T04:04:03.612Z,6.36
2023-04-15T04:07:06.497Z,6.39
2023-04-15T04:10:09.916Z,6.37
2023-04-15T04:13:12.703Z,6.33
2023-04-15T04:16:15.952Z,6.46
2023-04-15T04:19:19.996Z,6.63
2023-04-15T04:22:24.357Z,6.62
2023-04-15T04:25:27.341Z,6.60
2023-04-15T04:28:30.438Z,6.59
2023-04-15T04:31:33.863Z,6.75
2023-04-15T04:34:36.841Z,6.71
2023-04-15T04:37:39.465Z,6.71
2023-04-15T04:40:42.543Z,6.78
2023-04-15T04:43:45.176Z,6.86
2023-04-15T04:46:48.031Z,6.95
2023-04-15T04:49:50.773Z,6.97
2023-04-15T04:52:53.898Z,7.21
2023-04-15T04:55:56.552Z,7.85
2023-04-15T04:58:59.964Z,8.25
2023-04-15T05:02:03.428Z,8.76
2023-04-15T05:05:07.140Z,8.31
2023-04-15T05:08:09.774Z,7.80
2023-04-15T05:11:13.113Z,7.28
2023-04-15T05:14:16.518Z,7.42
2023-04-15T05:17:19.475Z,7.19
2023-04-15T05:20:22.258Z,7.28
2023-04-15T05:23:25.622Z,7.54
2023-04-15T05:26:28.476Z,7.57
2023-04-15T05:29:31.531Z,8.31
2023-04-15T05:32:34.390Z,8.61
2023-04-15T05:35:37.441Z,8.68
2023-04-15T05:38:40.189Z,8.37
2023-04-15T05:41:44.937Z,8.23
2023-04-15T05:44:47.706Z,8.14
2023-04-15T05:47:53.929Z,8.22
2023-04-15T05:50:57.034Z,7.80
2023-04-15T05:54:00.109Z,7.87
2023-04-15T05:57:02.888Z,8.19
2023-04-15T06:00:06.669Z,8.06
2023-04-15T06:03:12.576Z,8.43
2023-04-15T06:06:15.866Z,8.42
2023-04-15T06:09:18.609Z,8.29
2023-04-15T06:12:24.689Z,8.34
2023-04-15T06:15:30.441Z,8.41
2023-04-15T06:18:35.899Z,8.63
2023-04-15T06:21:39.746Z,8.48
2023-04-15T06:24:42.735Z,9.08
2023-04-15T06:27:45.636Z,9.12
2023-04-15T06:30:48.797Z,9.69
2023-04-15T06:33:51.605Z,9.59
2023-04-15T06:36:55.837Z,9.99
2023-04-15T06:39:58.915Z,10.07
2023-04-15T06:43:04.966Z,10.31
2023-04-15T06:46:07.860Z,10.81
2023-04-15T06:49:11.570Z,12.07
2023-04-15T06:52:14.559Z,11.23
2023-04-15T06:55:17.862Z,10.80
2023-04-15T06:58:20.735Z,10.60
2023-04-15T07:01:24.010Z,10.39
2023-04-15T07:04:27.914Z,10.42
2023-04-15T07:07:31.245Z,10.85
2023-04-15T07:10:34.522Z,10.75
2023-04-15T07:13:37.760Z,10.72
2023-04-15T07:16:40.413Z,11.37
2023-04-15T07:19:43.436Z,10.86
2023-04-15T07:22:46.350Z,10.88
2023-04-15T07:25:49.387Z,10.95
2023-04-15T07:28:52.360Z,11.89
2023-04-15T07:31:57.229Z,12.39
2023-04-15T07:34:59.964Z,13.53
2023-04-15T07:38:05.052Z,14.68
2023-04-15T07:41:07.899Z,14.29
2023-04-15T07:44:11.429Z,14.10
2023-04-15T07:47:14.209Z,14.83
2023-04-15T07:50:17.631Z,13.56
2023-04-15T07:53:24.100Z,11.87
2023-04-15T07:56:27.228Z,11.45
2023-04-15T07:59:31.190Z,11.74
2023-04-15T08:02:36.367Z,11.79
2023-04-15T08:05:40.407Z,12.96
2023-04-15T08:08:43.250Z,11.93
2023-04-15T08:11:51.003Z,11.76
2023-04-15T08:14:57.549Z,11.51
2023-04-15T08:18:09.485Z,12.40
2023-04-15T08:21:12.248Z,12.85
2023-04-15T08:24:15.801Z,13.38
2023-04-15T08:27:18.954Z,13.06
2023-04-15T08:30:21.885Z,14.28
2023-04-15T08:33:24.504Z,14.17
2023-04-15T08:36:27.796Z,13.67
2023-04-15T08:39:30.846Z,12.71
2023-04-15T08:42:42.916Z,12.89
2023-04-15T08:45:47.389Z,12.28
2023-04-15T08:48:50.916Z,12.01
2023-04-15T08:51:53.834Z,12.08
2023-04-15T08:55:01.620Z,11.69
2023-04-15T08:58:05.702Z,12.75
2023-04-15T09:01:10.024Z,13.05
2023-04-15T09:04:15.546Z,12.70
2023-04-15T09:07:22.434Z,12.21
2023-04-15T09:10:25.006Z,13.06
2023-04-15T09:13:28.280Z,13.88
2023-04-15T09:16:31.854Z,12.97
2023-04-15T09:19:35.235Z,12.44
2023-04-15T09:22:38.897Z,12.34
2023-04-15T09:25:42.933Z,12.68
2023-04-15T09:28:45.898Z,13.15
2023-04-15T09:31:49.175Z,12.89
2023-04-15T09:34:52.400Z,12.93
2023-04-15T09:38:05.501Z,14.07
2023-04-15T09:41:19.588Z,14.00
2023-04-15T09:44:24.172Z,13.98
2023-04-15T09:47:28.878Z,13.37
2023-04-15T09:50:41.287Z,13.19
2023-04-15T09:53:43.917Z,13.39
2023-04-15T09:56:47.592Z,13.55
2023-04-15T09:59:51.338Z,13.22
2023-04-15T10:02:55.019Z,13.02
2023-04-15T10:06:01.005Z,12.88
2023-04-15T10:09:04.404Z,12.86
2023-04-15T10:12:07.949Z,12.65
2023-04-15T10:15:19.582Z,12.36
2023-04-15T10:18:26.240Z,12.25
2023-04-15T10:21:30.871Z,11.93
2023-04-15T10:24:34.348Z,12.47
2023-04-15T10:27:37.505Z,12.18
2023-04-15T10:30:45.066Z,11.77
2023-04-15T10:33:50.861Z,11.89
2023-04-15T10:36:57.572Z,12.28
2023-04-15T10:40:00.694Z,12.75
2023-04-15T10:43:07.000Z,12.78
2023-04-15T10:46:10.846Z,12.27
2023-04-15T10:49:24.450Z,12.15
2023-04-15T10:52:29.080Z,12.36
2023-04-15T10:55:33.606Z,11.85
2023-04-15T10:58:43.707Z,12.15
2023-04-15T11:01:55.317Z,12.41
2023-04-15T11:05:02.651Z,12.02
2023-04-15T11:08:11.586Z,11.63
2023-04-15T11:11:14.330Z,11.62
2023-04-15T11:14:17.465Z,10.88
2023-04-15T11:17:29.776Z,10.89
2023-04-15T11:20:33.916Z,11.22
2023-04-15T11:23:46.999Z,11.26
2023-04-15T11:26:50.135Z,11.75
2023-04-15T11:29:54.647Z,12.02
2023-04-15T11:33:04.040Z,12.19
2023-04-15T11:36:32.814Z,12.15
2023-04-15T11:39:40.180Z,12.12
2023-04-15T11:42:49.985Z,11.98
2023-04-15T11:46:01.369Z,12.05
2023-04-15T11:49:05.191Z,12.10
2023-04-15T11:52:12.323Z,12.36
2023-04-15T11:55:15.471Z,12.23
2023-04-15T11:58:18.577Z,12.47
2023-04-15T12:01:21.652Z,12.03
2023-04-15T12:04:27.470Z,12.13
2023-04-15T12:07:30.357Z,11.94
2023-04-15T12:10:35.641Z,11.79
2023-04-15T12:13:41.865Z,11.43
2023-04-15T12:16:49.214Z,11.54
2023-04-15T12:19:57.195Z,11.79
2023-04-15T12:23:07.258Z,11.54
2023-04-15T12:26:10.657Z,11.77
2023-04-15T12:29:16.353Z,11.85
2023-04-15T12:32:22.933Z,11.74
2023-04-15T12:35:25.802Z,11.61
2023-04-15T12:38:28.695Z,11.84
2023-04-15T12:41:32.437Z,11.82
2023-04-15T12:44:36.329Z,11.73
2023-04-15T12:47:39.518Z,11.80
2023-04-15T12:50:42.480Z,11.71
2023-04-15T12:53:45.595Z,11.69
2023-04-15T12:56:50.186Z,11.79
2023-04-15T12:59:55.101Z,11.86
2023-04-15T13:02:58.120Z,12.05
2023-04-15T13:06:02.338Z,11.88
2023-04-15T13:09:06.211Z,11.75
2023-04-15T13:12:16.541Z,11.93
2023-04-15T13:15:22.474Z,12.00
2023-04-15T13:18:25.425Z,11.66
2023-04-15T13:21:32.256Z,11.74
2023-04-15T13:24:36.263Z,12.04
2023-04-15T13:27:39.023Z,11.98
2023-04-15T13:30:43.214Z,11.98
2023-04-15T13:33:46.185Z,11.89
2023-04-15T13:36:49.184Z,11.95
2023-04-15T13:39:52.094Z,11.86
2023-04-15T13:42:56.225Z,11.54
2023-04-15T13:45:58.956Z,11.45
2023-04-15T13:49:02.447Z,11.49
2023-04-15T13:52:05.129Z,11.66
2023-04-15T13:55:20.490Z,11.72
2023-04-15T13:58:25.093Z,12.11
2023-04-15T14:01:28.992Z,12.12
2023-04-15T14:04:32.831Z,11.96
2023-04-15T14:07:35.986Z,11.86
2023-04-15T14:10:38.869Z,11.96
2023-04-15T14:13:42.292Z,11.85
2023-04-15T14:16:45.494Z,11.98
2023-04-15T14:19:48.499Z,11.83
2023-04-15T14:22:52.453Z,11.64
2023-04-15T14:25:55.150Z,11.53
2023-04-15T14:29:01.197Z,11.63
2023-04-15T14:32:12.049Z,11.71
2023-04-15T14:35:15.974Z,11.76
2023-04-15T14:38:24.560Z,11.60
2023-04-15T14:41:27.827Z,11.54
2023-04-15T18:57:42.895Z,9.38
2023-04-15T19:00:51.017Z,9.38
2023-04-15T19:03:56.284Z,9.34
2023-04-15T19:07:00.652Z,9.35
2023-04-15T19:10:09.339Z,9.31
2023-04-15T19:13:18.811Z,9.66
2023-04-15T19:16:25.906Z,9.38
2023-04-15T19:19:56.941Z,9.37
2023-04-15T19:23:13.830Z,9.32
2023-04-15T19:26:19.111Z,9.22
2023-04-15T19:29:23.689Z,9.24
2023-04-15T19:32:31.796Z,9.36
2023-04-15T19:36:07.533Z,9.27
2023-04-15T19:39:15.722Z,9.24
2023-04-15T19:42:21.064Z,9.16
2023-04-15T19:45:28.277Z,9.17
2023-04-15T19:48:33.326Z,9.16
2023-04-15T19:51:39.388Z,9.11
2023-04-15T19:54:48.382Z,9.17
2023-04-15T19:57:55.478Z,9.22
2023-04-15T20:01:01.497Z,9.20
2023-04-15T20:04:08.096Z,9.17
2023-04-15T20:07:22.039Z,9.12
2023-04-15T20:10:26.722Z,9.09
2023-04-15T20:13:30.426Z,9.12
2023-04-15T20:16:35.673Z,9.12
2023-04-15T20:19:42.096Z,9.14
2023-04-15T20:22:47.427Z,9.07
2023-04-15T20:25:54.847Z,9.13
2023-04-15T20:28:59.879Z,9.30
2023-04-15T20:32:05.113Z,9.30
2023-04-15T20:35:10.169Z,9.21
2023-04-15T20:38:15.447Z,9.23
2023-04-15T20:41:21.879Z,9.34
2023-04-15T20:44:28.550Z,9.14
2023-04-15T20:47:32.315Z,9.19
2023-04-15T20:50:37.043Z,9.17
2023-04-15T20:53:42.176Z,9.03
2023-04-15T20:56:45.062Z,9.24
2023-04-15T20:59:48.383Z,9.26
2023-04-15T21:02:51.937Z,9.12
2023-04-15T21:05:57.402Z,9.12
2023-04-15T21:09:01.189Z,9.21
2023-04-15T21:12:04.484Z,9.12
2023-04-15T21:15:08.461Z,9.20
2023-04-15T21:18:11.658Z,8.92
2023-04-15T21:21:14.598Z,8.76
2023-04-15T21:24:18.059Z,8.64
2023-04-15T21:27:21.079Z,8.60
2023-04-15T21:30:24.387Z,8.65
2023-04-15T21:33:27.286Z,8.62
2023-04-15T21:36:32.661Z,8.50
2023-04-15T21:39:35.918Z,8.53
2023-04-15T21:42:41.756Z,8.57
2023-04-15T21:45:51.380Z,8.51
2023-04-15T21:49:08.308Z,8.46
2023-04-15T21:52:12.012Z,8.46
2023-04-15T21:55:15.163Z,8.48
2023-04-15T21:58:18.915Z,8.67
2023-04-15T22:01:25.939Z,8.62
2023-04-15T22:04:35.586Z,8.61
2023-04-15T22:07:38.485Z,8.77
2023-04-15T22:10:44.683Z,8.71
2023-04-15T22:13:50.418Z,8.52
2023-04-15T22:16:58.462Z,8.45
2023-04-15T22:20:01.685Z,8.50
2023-04-15T22:23:09.063Z,8.57
2023-04-15T22:26:12.261Z,8.60
2023-04-15T22:29:16.913Z,8.56
2023-04-15T22:32:20.993Z,8.49
2023-04-15T22:35:24.372Z,8.41
2023-04-15T22:38:27.590Z,8.42
2023-04-15T22:41:30.666Z,8.42
2023-04-15T22:44:33.923Z,8.40
2023-04-15T22:47:37.409Z,8.39
2023-04-15T22:50:40.723Z,8.55
2023-04-15T22:53:44.113Z,8.46
2023-04-15T22:56:47.099Z,8.31
2023-04-15T22:59:50.188Z,8.31
2023-04-15T23:02:52.933Z,8.32
2023-04-15T23:05:56.501Z,8.27
2023-04-15T23:08:59.637Z,8.30
2023-04-15T23:12:06.375Z,8.32
2023-04-15T23:15:09.568Z,8.30
2023-04-15T23:18:12.952Z,8.39
2023-04-15T23:21:17.139Z,8.45
2023-04-15T23:24:23.110Z,8.30
2023-04-15T23:27:25.729Z,8.17
2023-04-15T23:30:28.982Z,8.12
2023-04-15T23:33:32.683Z,8.02
2023-04-15T23:36:36.179Z,7.97
2023-04-15T23:39:39.052Z,7.90
2023-04-15T23:42:42.524Z,7.92
2023-04-15T23:45:45.367Z,7.93
2023-04-15T23:48:51.772Z,7.86
2023-04-15T23:51:54.874Z,7.86
2023-04-15T23:55:00.232Z,7.97
2023-04-15T23:58:04.134Z,7.90
